Pagrindinis puslapis
METAR-TAF:

METAR-TAF

Oro uostai :

Tirgu Murešas, Rumunija

platuma: 46-32N, ilguma: 024-32E, Aukštis: 308 m

Dabartinis oras

Ataskaita buvo paskelbta 35 minutes, ne 06:00 UTC
Vėjas 9 kt iš Vakarų/Pietvakarių, svyruoja nuo Pietų/Pietvakarių ir Vakarų
Temperatūra 14°C
Drėgmė 63%
Slėgis 1013 hPa
Matomumas 10 km arba daugiau
Mažai debesys ne aukštis 3500 ft

METAR: LRTM 300600Z 24009KT 210V270 9999 FEW035 14/07 Q1013

Laikas: 09:35 (06:35 UTC)

Prognozė

Ataskaita buvo paskelbta 1 valandą ir 35 minutes, ne 05:00 UTC
Prognozė galioja nuo 30 metu 06 UTC su 30 metu 15 UTC
Vėjas 10 kt iš Vakarų
Matomumas 10 km arba daugiau
Su prošvaistėmis ne aukštis 4000 ft
Tikimybė 30% :
Laikinai
nuo 30 metu 11 UTC su 30 metu 15 UTC
Matomumas: 5000 m
Išsisklaidę debesys ne aukštis 4000 ft, Liūtiniai kamuoliniai debesys.
lietus

TAF: LRTM 300500Z 3006/3015 28010KT 9999 BKN040 PROB30 TEMPO 3011/3015 5000 SHRA SCT040CB

Orai ataskaitas ir orų prognozės (METAR, TAF).

turimą stotys yra geltonos ir raudonos taškus žemėlapyje.

Perkelti pele per norėdami pamatyti stoties vardą.

Tada spustelėkite, norėdami matyti oro stebėjimo ir prognozės.

Norėdami pakeisti žemėlapį: spustelėkite ant žalios mygtukų su juodo kryžiaus žemyn,; žalią mygtuką su brūkšneliu, jei norite nutolinti; arba žalių rodyklių gretimoms žemėlapius.


METAR-TAF: